createdAt,value
2022-11-10T00:02:31.649Z,12.20
2022-11-10T00:05:38.172Z,12.15
2022-11-10T00:08:43.116Z,12.13
2022-11-10T00:11:48.839Z,12.10
2022-11-10T00:15:23.729Z,12.12
2022-11-10T00:18:28.649Z,12.09
2022-11-10T00:21:33.698Z,12.11
2022-11-10T00:24:38.565Z,12.10
2022-11-10T00:27:43.494Z,12.10
2022-11-10T00:30:50.370Z,12.08
2022-11-10T00:33:54.858Z,12.09
2022-11-10T00:37:08.143Z,12.15
2022-11-10T00:40:13.456Z,12.10
2022-11-10T00:43:21.300Z,12.04
2022-11-10T00:46:31.597Z,11.96
2022-11-10T00:49:36.316Z,11.90
2022-11-10T00:52:41.426Z,11.84
2022-11-10T00:55:47.005Z,11.78
2022-11-10T00:58:52.928Z,11.70
2022-11-10T01:02:01.834Z,11.68
2022-11-10T01:05:06.660Z,11.73
2022-11-10T01:08:11.874Z,11.76
2022-11-10T01:11:17.980Z,11.85
2022-11-10T01:14:22.978Z,11.83
2022-11-10T01:17:31.352Z,11.72
2022-11-10T01:20:37.491Z,11.66
2022-11-10T01:23:42.507Z,11.66
2022-11-10T01:26:47.462Z,11.60
2022-11-10T01:29:52.482Z,11.56
2022-11-10T01:33:05.082Z,11.52
2022-11-10T01:36:11.163Z,11.49
2022-11-10T01:39:18.826Z,11.46
2022-11-10T01:42:28.524Z,11.41
2022-11-10T01:45:53.497Z,11.44
2022-11-10T01:49:02.880Z,11.46
2022-11-10T01:52:12.618Z,11.44
2022-11-10T01:55:17.898Z,11.48
2022-11-10T01:58:27.446Z,11.52
2022-11-10T02:01:32.833Z,11.50
2022-11-10T02:04:40.976Z,11.47
2022-11-10T02:07:46.449Z,11.43
2022-11-10T02:10:51.617Z,11.31
2022-11-10T02:14:00.497Z,11.23
2022-11-10T02:17:05.749Z,11.28
2022-11-10T02:20:15.094Z,11.13
2022-11-10T02:23:49.131Z,11.05
2022-11-10T02:26:58.621Z,10.96
2022-11-10T02:30:04.250Z,10.93
2022-11-10T02:33:09.142Z,10.87
2022-11-10T02:36:13.970Z,10.81
2022-11-10T02:39:20.649Z,10.74
2022-11-10T02:42:25.428Z,10.68
2022-11-10T02:45:30.387Z,10.60
2022-11-10T02:48:36.315Z,10.53
2022-11-10T02:51:42.799Z,10.51
2022-11-10T02:54:49.709Z,10.45
2022-11-10T02:57:54.522Z,10.39
2022-11-10T03:00:59.917Z,10.39
2022-11-10T03:04:04.813Z,10.37
2022-11-10T03:07:09.736Z,10.30
2022-11-10T03:10:16.135Z,10.25
2022-11-10T03:13:21.281Z,10.24
2022-11-10T03:16:26.722Z,10.24
2022-11-10T03:19:31.715Z,10.18
2022-11-10T03:22:37.385Z,10.21
2022-11-10T03:25:44.586Z,10.22
2022-11-10T03:28:49.656Z,10.25
2022-11-10T03:31:54.458Z,10.33
2022-11-10T03:35:00.163Z,10.38
2022-11-10T03:38:05.389Z,10.40
2022-11-10T03:41:20.164Z,10.48
2022-11-10T03:44:25.618Z,10.48
2022-11-10T03:47:30.635Z,10.50
2022-11-10T03:50:35.669Z,10.50
2022-11-10T03:53:40.947Z,10.53
2022-11-10T03:56:47.339Z,10.55
2022-11-10T03:59:52.127Z,10.49
2022-11-10T04:02:56.921Z,10.48
2022-11-10T04:06:18.231Z,10.49
2022-11-10T04:09:23.160Z,10.51
2022-11-10T04:12:46.383Z,10.51
2022-11-10T04:15:52.318Z,10.48
2022-11-10T04:18:57.152Z,10.52
2022-11-10T04:22:01.896Z,10.54
2022-11-10T04:25:06.711Z,10.53
2022-11-10T04:28:12.955Z,10.53
2022-11-10T04:31:18.874Z,10.52
2022-11-10T04:34:23.745Z,10.47
2022-11-10T04:37:28.073Z,10.38
2022-11-10T04:40:33.030Z,10.32
2022-11-10T04:43:39.941Z,10.29
2022-11-10T04:46:44.659Z,10.20
2022-11-10T04:49:49.577Z,10.07
2022-11-10T04:52:54.495Z,9.98
2022-11-10T04:55:59.312Z,9.85
2022-11-10T04:59:05.684Z,9.81
2022-11-10T05:02:10.518Z,9.66
2022-11-10T05:05:15.836Z,9.53
2022-11-10T05:08:20.851Z,9.46
2022-11-10T05:11:25.725Z,9.38
2022-11-10T05:14:33.451Z,9.31
2022-11-10T05:17:38.719Z,9.19
2022-11-10T05:20:43.667Z,9.15
2022-11-10T05:23:48.717Z,9.06
2022-11-10T05:26:53.693Z,8.99
2022-11-10T05:30:03.474Z,8.90
2022-11-10T05:33:09.018Z,8.83
2022-11-10T05:36:13.862Z,8.80
2022-11-10T05:39:19.405Z,8.74
2022-11-10T05:42:24.200Z,8.72
2022-11-10T05:45:31.426Z,8.67
2022-11-10T05:48:36.446Z,8.57
2022-11-10T05:51:41.478Z,8.62
2022-11-10T05:54:46.405Z,8.59
2022-11-10T05:57:52.834Z,8.55
2022-11-10T06:01:01.758Z,8.52
2022-11-10T06:04:06.848Z,8.47
2022-11-10T06:07:12.570Z,8.43
2022-11-10T06:10:17.606Z,8.45
2022-11-10T06:13:22.913Z,8.42
2022-11-10T06:16:30.271Z,8.42
2022-11-10T06:19:35.139Z,8.45
2022-11-10T06:22:39.702Z,8.45
2022-11-10T06:25:44.955Z,8.52
2022-11-10T06:28:50.023Z,8.48
2022-11-10T06:31:56.661Z,8.43
2022-11-10T06:35:02.038Z,8.44
2022-11-10T06:38:07.945Z,8.47
2022-11-10T06:41:12.643Z,8.45
2022-11-10T06:44:19.485Z,8.46
2022-11-10T06:47:25.811Z,8.46
2022-11-10T06:50:31.120Z,8.55
2022-11-10T06:53:36.062Z,8.63
2022-11-10T06:56:40.836Z,8.74
2022-11-10T06:59:45.963Z,8.84
2022-11-10T07:03:03.631Z,9.03
2022-11-10T07:06:08.715Z,9.19
2022-11-10T07:09:14.281Z,9.31
2022-11-10T07:12:19.908Z,9.48
2022-11-10T07:15:25.231Z,9.60
2022-11-10T07:18:31.729Z,9.73
2022-11-10T07:21:36.582Z,9.78
2022-11-10T07:24:42.027Z,9.87
2022-11-10T07:27:47.438Z,9.96
2022-11-10T07:30:53.410Z,10.05
2022-11-10T07:34:09.174Z,10.14
2022-11-10T07:37:14.102Z,10.19
2022-11-10T07:40:19.076Z,10.25
2022-11-10T07:43:25.570Z,10.30
2022-11-10T07:46:31.054Z,10.43
2022-11-10T07:49:39.889Z,10.48
2022-11-10T07:52:44.521Z,10.48
2022-11-10T07:55:49.930Z,10.47
2022-11-10T07:58:55.034Z,10.44
2022-11-10T08:01:59.865Z,10.48
2022-11-10T08:05:06.563Z,10.52
2022-11-10T08:08:11.901Z,10.59
2022-11-10T08:11:17.402Z,10.64
2022-11-10T08:14:25.268Z,10.73
2022-11-10T08:17:30.050Z,10.86
2022-11-10T08:20:36.731Z,10.99
2022-11-10T08:23:41.492Z,11.01
2022-11-10T08:26:46.180Z,11.05
2022-11-10T08:29:51.001Z,11.16
2022-11-10T08:32:57.961Z,11.25
2022-11-10T08:36:04.360Z,11.28
2022-11-10T08:39:09.855Z,11.33
2022-11-10T08:42:14.541Z,11.40
2022-11-10T08:45:19.274Z,11.45
2022-11-10T08:48:24.206Z,11.54
2022-11-10T08:51:34.876Z,11.62
2022-11-10T08:54:42.460Z,11.73
2022-11-10T08:57:47.325Z,11.82
2022-11-10T09:00:55.274Z,11.87
2022-11-10T09:04:00.108Z,11.95
2022-11-10T09:07:07.202Z,12.10
2022-11-10T09:10:12.495Z,12.16
2022-11-10T09:13:18.285Z,12.29
2022-11-10T09:16:23.144Z,12.35
2022-11-10T09:19:28.293Z,12.53
2022-11-10T09:22:34.571Z,12.65
2022-11-10T09:25:39.711Z,12.76
2022-11-10T09:28:44.778Z,13.22
2022-11-10T09:31:49.749Z,15.72
2022-11-10T09:34:54.684Z,18.29
2022-11-10T09:38:01.122Z,19.62
2022-11-10T09:41:09.031Z,19.38
2022-11-10T09:44:19.781Z,18.84
2022-11-10T09:47:56.690Z,18.11
2022-11-10T09:50:56.170Z,17.97
2022-11-10T09:54:06.952Z,17.60
2022-11-10T09:57:17.424Z,18.11
2022-11-10T10:00:22.401Z,18.37
2022-11-10T10:03:32.176Z,18.31
2022-11-10T10:07:09.616Z,18.26
2022-11-10T10:10:17.777Z,18.20
2022-11-10T10:13:45.546Z,17.65
2022-11-10T10:17:00.291Z,17.88
2022-11-10T10:20:13.054Z,18.11
2022-11-10T10:23:40.733Z,17.32
2022-11-10T10:26:55.800Z,16.66
2022-11-10T10:30:00.829Z,16.38
2022-11-10T10:33:16.474Z,16.10
2022-11-10T10:36:24.953Z,16.13
2022-11-10T10:39:33.856Z,16.26
2022-11-10T10:42:40.377Z,16.19
2022-11-10T10:45:45.124Z,15.94
2022-11-10T10:48:53.826Z,15.66
2022-11-10T10:52:12.526Z,15.53
2022-11-10T10:55:17.413Z,15.90
2022-11-10T10:58:27.483Z,16.13
2022-11-10T11:01:33.455Z,16.37
2022-11-10T11:04:39.930Z,16.58
2022-11-10T11:07:55.795Z,16.52
2022-11-10T11:11:09.795Z,16.08
2022-11-10T11:14:23.025Z,15.84
2022-11-10T11:17:28.362Z,15.73
2022-11-10T11:20:40.828Z,15.73
2022-11-10T11:24:00.635Z,15.94
2022-11-10T11:27:13.962Z,16.18
2022-11-10T11:30:21.675Z,16.14
2022-11-10T11:33:45.299Z,16.10
2022-11-10T11:37:05.327Z,16.08
2022-11-10T11:40:28.641Z,16.08
2022-11-10T11:43:57.433Z,16.08
2022-11-10T11:47:14.741Z,15.98
2022-11-10T11:50:30.455Z,16.01
2022-11-10T11:53:50.535Z,16.95
2022-11-10T11:57:00.238Z,17.85
2022-11-10T12:00:10.833Z,17.66
2022-11-10T12:03:57.927Z,17.07
2022-11-10T12:07:15.286Z,16.72
2022-11-10T12:10:31.198Z,16.50
2022-11-10T12:13:54.038Z,16.36
2022-11-10T12:17:08.868Z,16.24
2022-11-10T12:20:37.070Z,16.11
2022-11-10T12:23:52.121Z,16.27
2022-11-10T12:27:01.571Z,16.93
2022-11-10T12:30:11.956Z,18.52
2022-11-10T12:33:25.353Z,20.24
2022-11-10T12:36:34.631Z,22.13
2022-11-10T12:39:48.325Z,24.28
2022-11-10T12:43:00.626Z,25.42
2022-11-10T12:46:08.560Z,25.49
2022-11-10T12:49:21.295Z,26.45
2022-11-10T12:52:34.838Z,27.31
2022-11-10T12:55:43.735Z,26.21
2022-11-10T12:58:48.249Z,25.23
2022-11-10T13:01:59.125Z,24.34
2022-11-10T13:05:25.488Z,23.33
2022-11-10T13:08:50.535Z,21.96
2022-11-10T13:12:17.397Z,20.90
2022-11-10T13:15:58.204Z,19.98
2022-11-10T13:19:03.972Z,19.20
2022-11-10T13:22:12.957Z,18.48
2022-11-10T13:26:04.142Z,18.17
2022-11-10T13:29:29.710Z,17.77
2022-11-10T13:32:37.537Z,17.57
2022-11-10T13:35:55.956Z,17.50
2022-11-10T13:39:24.404Z,17.19
2022-11-10T13:42:29.736Z,16.93
2022-11-10T13:45:47.590Z,16.78
2022-11-10T13:49:27.126Z,16.61
2022-11-10T13:52:51.149Z,16.54
2022-11-10T13:56:10.259Z,16.38
2022-11-10T13:59:22.106Z,16.31
2022-11-10T14:02:48.595Z,16.25
2022-11-10T14:06:11.419Z,16.25
2022-11-10T14:09:29.355Z,16.18
2022-11-10T14:12:43.300Z,16.03
2022-11-10T14:15:50.264Z,15.89
2022-11-10T14:19:04.171Z,15.72
2022-11-10T14:22:22.577Z,15.55
2022-11-10T14:25:35.259Z,15.45
2022-11-10T14:28:40.433Z,15.35
2022-11-10T14:31:47.201Z,15.34
2022-11-10T14:34:56.618Z,15.22
2022-11-10T14:38:02.157Z,15.17
2022-11-10T14:41:08.861Z,15.03
2022-11-10T14:44:22.099Z,14.91
2022-11-10T14:47:31.415Z,14.79
2022-11-10T14:50:38.414Z,14.63
2022-11-10T14:53:50.187Z,14.49
2022-11-10T14:56:55.562Z,14.34
2022-11-10T15:00:00.254Z,14.24
2022-11-10T15:03:06.628Z,14.10
2022-11-10T15:06:14.635Z,13.96
2022-11-10T15:09:25.612Z,13.81
2022-11-10T15:12:30.781Z,13.65
2022-11-10T15:15:35.955Z,13.55
2022-11-10T15:18:41.074Z,13.46
2022-11-10T15:21:48.840Z,13.41
2022-11-10T15:24:54.216Z,13.32
2022-11-10T15:28:02.526Z,13.27
2022-11-10T15:31:10.734Z,13.20
2022-11-10T15:34:31.840Z,13.10
2022-11-10T15:37:38.378Z,12.91
2022-11-10T15:40:47.677Z,12.75
2022-11-10T15:43:52.468Z,12.59
2022-11-10T15:46:58.893Z,12.45
2022-11-10T15:50:06.083Z,12.28
2022-11-10T15:53:18.233Z,12.20
2022-11-10T15:56:24.273Z,12.02
2022-11-10T15:59:29.021Z,11.90
2022-11-10T16:02:33.626Z,11.83
2022-11-10T16:05:40.590Z,11.76
2022-11-10T16:08:48.276Z,11.65
2022-11-10T16:11:53.229Z,11.61
2022-11-10T16:15:00.002Z,11.56
2022-11-10T16:18:04.998Z,11.54
2022-11-10T16:21:13.496Z,11.50
2022-11-10T16:24:19.942Z,11.41
2022-11-10T16:27:24.790Z,11.31
2022-11-10T16:30:30.206Z,11.27
2022-11-10T16:33:34.874Z,11.13
2022-11-10T16:36:42.063Z,11.04
2022-11-10T16:39:48.184Z,10.94
2022-11-10T16:42:53.232Z,10.90
2022-11-10T16:46:00.441Z,10.84
2022-11-10T16:49:07.568Z,10.76
2022-11-10T16:52:18.021Z,10.69
2022-11-10T16:55:24.382Z,10.64
2022-11-10T16:58:29.258Z,10.60
2022-11-10T17:01:37.694Z,10.50
2022-11-10T17:04:42.389Z,10.46
2022-11-10T17:07:47.107Z,10.43
2022-11-10T17:10:53.717Z,10.41
2022-11-10T17:13:58.657Z,10.41
2022-11-10T17:17:04.552Z,10.30
2022-11-10T17:20:11.448Z,10.19
2022-11-10T17:23:18.473Z,10.11
2022-11-10T17:26:24.874Z,10.01
2022-11-10T17:29:30.265Z,9.99
2022-11-10T17:33:03.775Z,9.92
2022-11-10T17:36:05.362Z,9.89
2022-11-10T17:39:15.221Z,9.82
2022-11-10T17:42:21.646Z,9.79
2022-11-10T17:45:28.598Z,9.72
2022-11-10T17:48:33.405Z,9.65
2022-11-10T17:51:38.777Z,9.66
2022-11-10T17:54:43.714Z,9.60
2022-11-10T17:57:51.273Z,9.61
2022-11-10T18:00:57.416Z,9.63
2022-11-10T18:04:04.025Z,9.54
2022-11-10T18:07:08.919Z,9.48
2022-11-10T18:10:16.297Z,9.37
2022-11-10T18:13:22.795Z,9.35
2022-11-10T18:16:27.932Z,9.29
2022-11-10T18:19:32.703Z,9.19
2022-11-10T18:22:37.589Z,9.23
2022-11-10T18:25:43.109Z,9.21
2022-11-10T18:28:50.672Z,9.12
2022-11-10T18:31:55.473Z,9.10
2022-11-10T18:35:00.322Z,9.09
2022-11-10T18:38:05.449Z,8.99
2022-11-10T18:41:27.610Z,8.91
2022-11-10T18:44:37.517Z,8.89
2022-11-10T18:47:42.198Z,8.90
2022-11-10T18:50:54.773Z,8.87
2022-11-10T18:53:59.936Z,8.88
2022-11-10T18:57:05.115Z,8.79
2022-11-10T19:00:14.816Z,8.70
2022-11-10T19:03:20.199Z,8.68
2022-11-10T19:06:25.703Z,8.70
2022-11-10T19:09:30.780Z,8.72
2022-11-10T19:12:35.741Z,8.61
2022-11-10T19:15:44.161Z,8.62
2022-11-10T19:18:51.021Z,8.60
2022-11-10T19:21:55.820Z,8.59
2022-11-10T19:25:07.987Z,8.50
2022-11-10T19:28:13.435Z,8.48
2022-11-10T19:31:23.299Z,8.43
2022-11-10T19:34:28.286Z,8.43
2022-11-10T19:37:36.546Z,8.44
2022-11-10T19:40:41.122Z,8.45
2022-11-10T19:43:47.642Z,8.38
2022-11-10T19:46:54.095Z,8.36
2022-11-10T19:49:58.888Z,8.28
2022-11-10T19:53:03.706Z,8.27
2022-11-10T19:56:12.815Z,8.35
2022-11-10T19:59:21.510Z,8.38
2022-11-10T20:02:28.003Z,8.35
2022-11-10T20:05:32.904Z,8.29
2022-11-10T20:08:37.850Z,8.25
2022-11-10T20:11:42.606Z,8.16
2022-11-10T20:14:47.987Z,8.10
2022-11-10T20:17:54.640Z,8.08
2022-11-10T20:21:04.585Z,8.13
2022-11-10T20:24:10.059Z,8.11
2022-11-10T20:27:14.750Z,8.05
2022-11-10T20:30:23.813Z,8.01
2022-11-10T20:33:33.452Z,7.95
2022-11-10T20:36:39.116Z,7.91
2022-11-10T20:39:43.986Z,7.90
2022-11-10T20:42:48.757Z,7.85
2022-11-10T20:45:54.588Z,7.77
2022-11-10T20:49:01.602Z,7.78
2022-11-10T20:52:06.505Z,7.73
2022-11-10T20:55:09.895Z,7.66
2022-11-10T20:58:12.656Z,7.62
2022-11-10T21:01:16.418Z,7.64
2022-11-10T21:04:20.589Z,7.63
2022-11-10T21:07:23.288Z,7.68
2022-11-10T21:10:25.989Z,7.59
2022-11-10T21:13:29.313Z,7.50
2022-11-10T21:16:31.953Z,7.46
2022-11-10T21:19:36.660Z,7.48
2022-11-10T21:22:39.361Z,7.55
2022-11-10T21:25:42.030Z,7.52
2022-11-10T21:28:44.666Z,7.51
2022-11-10T21:31:47.824Z,7.44
2022-11-10T21:34:51.966Z,7.47
2022-11-10T21:37:54.869Z,7.42
2022-11-10T21:40:58.736Z,7.42
2022-11-10T21:44:01.429Z,7.44
2022-11-10T21:47:04.111Z,7.42
2022-11-10T21:50:09.554Z,7.42
2022-11-10T21:53:12.213Z,7.42
2022-11-10T21:56:15.182Z,7.41
2022-11-10T21:59:19.191Z,7.34
2022-11-10T22:02:21.823Z,7.33
2022-11-10T22:05:25.913Z,7.30
2022-11-10T22:08:28.621Z,7.23
2022-11-10T22:11:48.745Z,7.18
2022-11-10T22:15:08.884Z,7.07
2022-11-10T22:18:31.471Z,7.05
2022-11-10T22:21:35.728Z,7.01
2022-11-10T22:24:38.338Z,6.97
2022-11-10T22:27:40.985Z,7.03
2022-11-10T22:30:43.648Z,6.96
2022-11-10T22:33:46.427Z,6.94
2022-11-10T22:36:50.471Z,6.87
2022-11-10T22:40:10.493Z,6.83
2022-11-10T22:43:30.645Z,6.83
2022-11-10T22:46:35.347Z,6.89
2022-11-10T22:49:38.032Z,6.93
2022-11-10T22:52:42.000Z,6.93
2022-11-10T22:55:44.618Z,6.89
2022-11-10T22:58:47.573Z,6.84
2022-11-10T23:01:50.279Z,6.89
2022-11-10T23:04:52.972Z,6.83
2022-11-10T23:07:57.334Z,6.81
2022-11-10T23:11:01.159Z,6.81
2022-11-10T23:14:04.116Z,6.75
2022-11-10T23:17:06.721Z,6.75
2022-11-10T23:20:10.896Z,6.81
2022-11-10T23:23:15.127Z,6.77
2022-11-10T23:26:20.292Z,6.67
2022-11-10T23:29:23.136Z,6.65
2022-11-10T23:32:25.797Z,6.63
2022-11-10T23:35:28.456Z,6.70
2022-11-10T23:38:33.253Z,6.71
2022-11-10T23:41:35.947Z,6.66
2022-11-10T23:44:38.675Z,6.61
2022-11-10T23:47:41.570Z,6.62
2022-11-10T23:50:44.276Z,6.56
2022-11-10T23:53:48.340Z,6.54
2022-11-10T23:56:50.976Z,6.59
2022-11-10T23:59:53.663Z,6.57
